Time;durP1;ratioP1;P1;durP2;ratioP2;P2;SDS_P1;SDS_P2;PMS_P1;PMS_P2;Temp;Humidity;BMP_temperature;BMP_pressure;BME280_temperature;BME280_humidity;BME280_pressure;Samples;Min_cycle;Max_cycle;Signal;HPM_P1;HPM_P2
2022/06/24 00:01:40;;;;;;;;;;;18.00;99.90;;;;;;5073367;28;20255;-71
2022/06/24 00:04:06;;;;;;;;;;;18.00;99.90;;;;;;5072941;28;20003;-71
2022/06/24 00:06:47;;;;;;;;;;;18.00;99.90;;;;;;5073298;28;19920;-71
2022/06/24 00:09:13;;;;;;;;;;;18.00;99.90;;;;;;5073001;28;19913;-72
2022/06/24 00:11:39;;;;;;;;;;;18.10;99.90;;;;;;5073061;28;19916;-71
2022/06/24 00:14:05;;;;;;;;;;;18.00;99.90;;;;;;5072608;28;20442;-71
2022/06/24 00:16:31;;;;;;;;;;;18.00;99.90;;;;;;5054799;28;20491;-71
2022/06/24 00:19:12;;;;;;;;;;;18.00;99.90;;;;;;5072620;28;20167;-71
2022/06/24 00:21:37;;;;;;;;;;;18.00;99.90;;;;;;5073176;28;19912;-71
2022/06/24 00:24:03;;;;;;;;;;;18.10;99.90;;;;;;5072472;28;19924;-71
2022/06/24 00:26:41;;;;;;;;;;;18.10;99.90;;;;;;5072153;28;20405;-71
2022/06/24 00:29:06;;;;;;;;;;;18.10;99.90;;;;;;5072360;28;19964;-70
2022/06/24 00:31:32;;;;;;;;;;;18.20;99.90;;;;;;5072416;28;20346;-71
2022/06/24 00:33:57;;;;;;;;;;;18.20;99.90;;;;;;5072402;28;19920;-71
2022/06/24 00:36:24;;;;;;;;;;;18.20;99.90;;;;;;5072159;28;19920;-71
2022/06/24 00:38:50;;;;;;;;;;;18.10;99.90;;;;;;5054464;28;19916;-70
2022/06/24 00:41:21;;;;;;;;;;;18.20;99.90;;;;;;5072679;28;19923;-70
2022/06/24 00:43:53;;;;;;;;;;;18.00;99.90;;;;;;5072519;28;19916;-71
2022/06/24 00:46:24;;;;;;;;;;;18.10;99.90;;;;;;5072720;28;19916;-71
2022/06/24 00:48:50;;;;;;;;;;;18.00;99.90;;;;;;5072369;28;19920;-70
2022/06/24 00:51:16;;;;;;;;;;;17.90;99.90;;;;;;5072422;28;20054;-70
2022/06/24 00:53:46;;;;;;;;;;;17.70;99.90;;;;;;5072180;28;20292;-71
2022/06/24 00:56:12;;;;;;;;;;;17.70;99.90;;;;;;5072184;28;19916;-71
2022/06/24 00:58:38;;;;;;;;;;;17.70;99.90;;;;;;5072085;28;19920;-71
2022/06/24 01:01:04;;;;;;;;;;;17.60;99.90;;;;;;5071945;28;19919;-72
2022/06/24 01:03:37;;;;;;;;;;;17.50;99.90;;;;;;5071855;28;19916;-71
2022/06/24 01:06:02;;;;;;;;;;;17.40;99.90;;;;;;5071848;28;19913;-71
2022/06/24 01:08:28;;;;;;;;;;;17.40;99.90;;;;;;5072126;28;19916;-71
2022/06/24 01:10:53;;;;;;;;;;;17.50;99.90;;;;;;5071794;28;20344;-71
2022/06/24 01:13:19;;;;;;;;;;;17.30;99.90;;;;;;5072018;28;20015;-71
2022/06/24 01:15:44;;;;;;;;;;;17.30;99.90;;;;;;5071236;28;20364;-71
2022/06/24 01:18:10;;;;;;;;;;;17.40;99.90;;;;;;5071845;28;19920;-70
2022/06/24 01:20:35;;;;;;;;;;;17.40;99.90;;;;;;5053223;28;19960;-71
2022/06/24 01:23:01;;;;;;;;;;;17.30;99.90;;;;;;5071712;28;19917;-71
2022/06/24 01:25:29;;;;;;;;;;;17.30;99.90;;;;;;5053107;28;20360;-71
2022/06/24 01:27:54;;;;;;;;;;;17.40;99.90;;;;;;5053334;28;19919;-71
2022/06/24 01:30:20;;;;;;;;;;;17.30;99.90;;;;;;5053111;28;19916;-72
2022/06/24 01:32:45;;;;;;;;;;;17.30;99.90;;;;;;5071521;28;20387;-71
2022/06/24 01:35:11;;;;;;;;;;;17.30;99.90;;;;;;5070774;28;19914;-71
2022/06/24 01:37:36;;;;;;;;;;;17.40;99.90;;;;;;5070402;28;19923;-71
2022/06/24 01:40:02;;;;;;;;;;;17.30;99.90;;;;;;5071223;28;19908;-70
2022/06/24 01:42:28;;;;;;;;;;;17.20;99.90;;;;;;5071243;28;19924;-70
2022/06/24 01:44:53;;;;;;;;;;;17.30;99.90;;;;;;5071073;28;19913;-70
2022/06/24 01:47:18;;;;;;;;;;;17.30;99.90;;;;;;5053223;28;19916;-71
2022/06/24 01:49:44;;;;;;;;;;;17.30;99.90;;;;;;5070929;28;20376;-71
2022/06/24 01:52:10;;;;;;;;;;;17.30;99.90;;;;;;5071516;28;20007;-71
2022/06/24 01:54:35;;;;;;;;;;;17.30;99.90;;;;;;5071161;28;19999;-70
2022/06/24 01:57:01;;;;;;;;;;;17.30;99.90;;;;;;5071623;28;19912;-71
2022/06/24 01:59:26;;;;;;;;;;;17.30;99.90;;;;;;5070889;28;20392;-71
2022/06/24 02:01:52;;;;;;;;;;;17.40;99.90;;;;;;5071124;28;20408;-71
2022/06/24 02:04:17;;;;;;;;;;;17.40;99.90;;;;;;5070610;28;19921;-71
2022/06/24 02:06:43;;;;;;;;;;;17.40;99.90;;;;;;5070981;28;19920;-72
2022/06/24 02:09:08;;;;;;;;;;;17.40;99.90;;;;;;5070657;28;19959;-71
2022/06/24 02:14:18;;;;;;;;;;;17.40;99.90;;;;;;5070880;28;19983;-71
2022/06/24 02:16:45;;;;;;;;;;;17.40;99.90;;;;;;5070839;28;20394;-71
2022/06/24 02:19:10;;;;;;;;;;;17.50;99.90;;;;;;5070478;28;20028;-71
2022/06/24 02:21:36;;;;;;;;;;;17.50;99.90;;;;;;5070780;28;20391;-71
2022/06/24 02:24:02;;;;;;;;;;;17.50;99.90;;;;;;5070534;28;19999;-72
2022/06/24 02:26:28;;;;;;;;;;;17.50;99.90;;;;;;5070639;28;19916;-71
2022/06/24 02:28:53;;;;;;;;;;;17.50;99.90;;;;;;5063512;28;20398;-70
2022/06/24 02:31:19;;;;;;;;;;;17.60;99.90;;;;;;5059563;28;19913;-71
2022/06/24 02:33:46;;;;;;;;;;;17.60;99.90;;;;;;5050469;28;19912;-71
2022/06/24 02:36:12;;;;;;;;;;;17.60;99.90;;;;;;5049980;28;19940;-70
2022/06/24 02:38:37;;;;;;;;;;;17.70;99.90;;;;;;5050392;28;20490;-71
2022/06/24 02:41:03;;;;;;;;;;;17.80;99.90;;;;;;5050389;28;19916;-70
2022/06/24 02:43:31;;;;;;;;;;;17.80;99.90;;;;;;5050886;28;19995;-71
2022/06/24 02:45:59;;;;;;;;;;;17.80;99.90;;;;;;5050359;28;19913;-72
2022/06/24 02:48:25;;;;;;;;;;;17.80;99.90;;;;;;5050057;28;19948;-71
2022/06/24 02:50:51;;;;;;;;;;;17.80;99.90;;;;;;5050578;28;20365;-71
2022/06/24 02:53:17;;;;;;;;;;;17.80;99.90;;;;;;5050515;28;20249;-70
2022/06/24 02:55:47;;;;;;;;;;;17.80;99.90;;;;;;5050094;28;19912;-70
2022/06/24 02:58:13;;;;;;;;;;;17.80;99.90;;;;;;5050135;28;20284;-71
2022/06/24 03:00:44;;;;;;;;;;;17.90;99.90;;;;;;5032018;28;20015;-71
2022/06/24 03:03:10;;;;;;;;;;;17.80;99.90;;;;;;5050235;28;19924;-71
2022/06/24 03:05:36;;;;;;;;;;;17.90;99.90;;;;;;5050049;28;19924;-70
2022/06/24 03:08:02;;;;;;;;;;;17.90;99.90;;;;;;5050370;28;19913;-71
2022/06/24 03:10:27;;;;;;;;;;;17.90;99.90;;;;;;5049993;28;19924;-70
2022/06/24 03:12:53;;;;;;;;;;;17.90;99.90;;;;;;5049918;28;19913;-70
2022/06/24 03:15:19;;;;;;;;;;;18.00;99.90;;;;;;5049875;28;19913;-70
2022/06/24 03:17:45;;;;;;;;;;;18.00;99.90;;;;;;5050034;28;19920;-70
2022/06/24 03:20:10;;;;;;;;;;;18.00;99.90;;;;;;5049695;28;19935;-71
2022/06/24 03:22:36;;;;;;;;;;;18.00;99.90;;;;;;5049863;28;20384;-71
2022/06/24 03:25:02;;;;;;;;;;;18.10;99.90;;;;;;5031915;28;20008;-70
2022/06/24 03:27:28;;;;;;;;;;;18.10;99.90;;;;;;5049786;28;19917;-71
2022/06/24 03:29:53;;;;;;;;;;;18.30;99.90;;;;;;5049703;28;19916;-70
2022/06/24 03:32:18;;;;;;;;;;;18.20;99.90;;;;;;5049724;28;19921;-70
2022/06/24 03:34:44;;;;;;;;;;;18.30;99.90;;;;;;5049626;28;19908;-71
2022/06/24 03:37:09;;;;;;;;;;;18.20;99.90;;;;;;5049238;28;19971;-70
2022/06/24 03:39:35;;;;;;;;;;;18.30;99.90;;;;;;5049523;28;19963;-70
2022/06/24 03:42:01;;;;;;;;;;;18.30;99.90;;;;;;5049977;28;19912;-71
2022/06/24 03:44:26;;;;;;;;;;;18.30;99.90;;;;;;5049646;28;19920;-70
2022/06/24 03:46:52;;;;;;;;;;;18.30;99.90;;;;;;5050097;28;19913;-72
2022/06/24 03:49:19;;;;;;;;;;;18.40;99.90;;;;;;5049622;28;20015;-71
2022/06/24 03:51:44;;;;;;;;;;;18.40;99.90;;;;;;5050002;28;19913;-70
2022/06/24 03:54:10;;;;;;;;;;;18.30;99.90;;;;;;5049481;28;19936;-70
2022/06/24 03:56:35;;;;;;;;;;;18.40;99.90;;;;;;5049844;28;19921;-71
2022/06/24 03:59:01;;;;;;;;;;;18.40;99.90;;;;;;5049534;28;19917;-70
2022/06/24 04:01:26;;;;;;;;;;;18.40;99.90;;;;;;5052319;28;19912;-70
2022/06/24 04:03:52;;;;;;;;;;;18.40;99.90;;;;;;5053019;28;20002;-71
2022/06/24 04:06:18;;;;;;;;;;;18.30;99.90;;;;;;5053283;28;19916;-71
2022/06/24 04:08:43;;;;;;;;;;;18.40;99.90;;;;;;5053226;28;20040;-70
2022/06/24 04:11:10;;;;;;;;;;;18.40;99.90;;;;;;5053224;28;20307;-71
2022/06/24 04:13:35;;;;;;;;;;;18.40;99.90;;;;;;5052885;28;19913;-71
2022/06/24 04:16:01;;;;;;;;;;;18.40;99.90;;;;;;5053043;28;20261;-70
2022/06/24 04:18:26;;;;;;;;;;;18.50;99.90;;;;;;5034748;28;19916;-70
2022/06/24 04:20:52;;;;;;;;;;;18.40;99.90;;;;;;5052659;28;19920;-71
2022/06/24 04:23:17;;;;;;;;;;;18.40;99.90;;;;;;5052592;28;19948;-70
2022/06/24 04:25:45;;;;;;;;;;;18.50;99.90;;;;;;5052646;28;19917;-71
2022/06/24 04:28:11;;;;;;;;;;;18.50;99.90;;;;;;5052573;28;19931;-71
2022/06/24 04:30:36;;;;;;;;;;;18.50;99.90;;;;;;5052513;28;20287;-70
2022/06/24 04:33:02;;;;;;;;;;;18.50;99.90;;;;;;5052384;28;19913;-71
2022/06/24 04:35:27;;;;;;;;;;;18.50;99.90;;;;;;5052265;28;19940;-72
2022/06/24 04:37:53;;;;;;;;;;;18.60;99.90;;;;;;5052172;28;19917;-72
2022/06/24 04:40:18;;;;;;;;;;;18.60;99.90;;;;;;5052259;28;19913;-69
2022/06/24 04:42:45;;;;;;;;;;;18.70;99.90;;;;;;5052335;28;19917;-70
2022/06/24 04:45:10;;;;;;;;;;;18.70;99.90;;;;;;5052059;28;20385;-70
2022/06/24 04:47:36;;;;;;;;;;;18.70;99.90;;;;;;5052412;28;20022;-70
2022/06/24 04:50:02;;;;;;;;;;;18.80;99.90;;;;;;5051921;28;19928;-69
2022/06/24 04:52:28;;;;;;;;;;;18.80;99.90;;;;;;5034138;28;19921;-71
2022/06/24 04:54:53;;;;;;;;;;;18.80;99.90;;;;;;5051942;28;19916;-71
2022/06/24 04:57:19;;;;;;;;;;;18.80;99.90;;;;;;5051929;28;19921;-71
2022/06/24 04:59:44;;;;;;;;;;;18.80;99.90;;;;;;5051924;28;19995;-69
2022/06/24 05:02:10;;;;;;;;;;;18.80;99.90;;;;;;5041327;28;19987;-68
2022/06/24 05:04:35;;;;;;;;;;;18.80;99.90;;;;;;5060935;28;19916;-68
2022/06/24 05:07:02;;;;;;;;;;;18.90;99.90;;;;;;5056734;28;19912;-68
2022/06/24 05:09:27;;;;;;;;;;;18.90;99.90;;;;;;5050846;28;19912;-68
2022/06/24 05:11:53;;;;;;;;;;;19.00;99.90;;;;;;5051946;28;20431;-68
2022/06/24 05:14:19;;;;;;;;;;;19.00;99.90;;;;;;5056644;28;19916;-68
2022/06/24 05:16:44;;;;;;;;;;;19.00;99.90;;;;;;5059935;28;19917;-68
2022/06/24 05:19:10;;;;;;;;;;;19.00;99.90;;;;;;5071128;28;19916;-69
2022/06/24 05:21:36;;;;;;;;;;;19.00;99.90;;;;;;5071342;28;19913;-69
2022/06/24 05:24:01;;;;;;;;;;;19.00;99.90;;;;;;5052923;28;20376;-68
2022/06/24 05:26:27;;;;;;;;;;;19.10;99.90;;;;;;5053431;28;20382;-68
2022/06/24 05:28:52;;;;;;;;;;;19.10;99.90;;;;;;5070833;28;19978;-68
2022/06/24 05:31:18;;;;;;;;;;;19.10;99.90;;;;;;5071524;28;19923;-67
2022/06/24 05:33:43;;;;;;;;;;;19.10;99.90;;;;;;5070714;28;19982;-67
2022/06/24 05:36:09;;;;;;;;;;;19.20;99.90;;;;;;5070846;28;19927;-68
2022/06/24 05:38:35;;;;;;;;;;;19.20;99.90;;;;;;5060198;28;19921;-67
2022/06/24 05:41:01;;;;;;;;;;;19.20;99.90;;;;;;5054105;28;19909;-68
2022/06/24 05:43:27;;;;;;;;;;;19.20;99.90;;;;;;5039343;28;19916;-67
2022/06/24 05:45:52;;;;;;;;;;;19.20;99.90;;;;;;5059293;28;19916;-68
2022/06/24 05:48:18;;;;;;;;;;;19.20;99.90;;;;;;5071789;28;19931;-67
2022/06/24 05:50:43;;;;;;;;;;;19.40;99.90;;;;;;5071674;28;19919;-68
2022/06/24 05:55:58;;;;;;;;;;;19.50;99.90;;;;;;5071778;28;20019;-69
2022/06/24 05:58:25;;;;;;;;;;;19.60;99.90;;;;;;5053588;28;19990;-68
2022/06/24 06:00:51;;;;;;;;;;;19.60;99.90;;;;;;5071724;28;19919;-68
2022/06/24 06:03:17;;;;;;;;;;;19.70;99.90;;;;;;5071315;28;19917;-68
2022/06/24 06:05:42;;;;;;;;;;;19.70;99.90;;;;;;5071524;28;19912;-68
2022/06/24 06:08:08;;;;;;;;;;;19.70;99.90;;;;;;5071267;28;20356;-68
2022/06/24 06:10:34;;;;;;;;;;;19.70;99.90;;;;;;5053395;28;19912;-68
2022/06/24 06:13:00;;;;;;;;;;;19.70;99.90;;;;;;5071437;28;20040;-68
2022/06/24 06:15:25;;;;;;;;;;;19.70;99.90;;;;;;5071748;28;20451;-68
2022/06/24 06:17:51;;;;;;;;;;;19.80;99.90;;;;;;5071365;28;20346;-68
2022/06/24 06:20:16;;;;;;;;;;;19.80;99.90;;;;;;5071445;28;19916;-69
2022/06/24 06:22:42;;;;;;;;;;;19.80;99.90;;;;;;5035099;28;20357;-69
2022/06/24 06:25:09;;;;;;;;;;;19.90;99.90;;;;;;5054583;28;19917;-68
2022/06/24 06:27:36;;;;;;;;;;;19.80;99.90;;;;;;5061734;28;19924;-68
2022/06/24 06:30:02;;;;;;;;;;;19.80;99.90;;;;;;5065935;28;20003;-68
2022/06/24 06:32:28;;;;;;;;;;;19.90;99.90;;;;;;5069337;28;20077;-68
2022/06/24 06:34:53;;;;;;;;;;;19.90;99.90;;;;;;5063866;28;19935;-68
2022/06/24 06:37:19;;;;;;;;;;;20.00;99.90;;;;;;5056332;28;19931;-68
2022/06/24 06:39:44;;;;;;;;;;;20.00;99.90;;;;;;5059019;28;19913;-68
2022/06/24 06:42:09;;;;;;;;;;;20.00;99.90;;;;;;5058157;28;19962;-68
2022/06/24 06:44:35;;;;;;;;;;;20.00;99.90;;;;;;5057911;28;20020;-67
2022/06/24 06:47:01;;;;;;;;;;;20.00;99.90;;;;;;5057492;28;19913;-68
2022/06/24 06:49:26;;;;;;;;;;;20.10;99.90;;;;;;5063381;28;20136;-68
2022/06/24 06:51:52;;;;;;;;;;;20.00;99.90;;;;;;5070444;28;20402;-67
2022/06/24 06:54:17;;;;;;;;;;;20.10;99.90;;;;;;5070290;28;19955;-68
2022/06/24 06:56:43;;;;;;;;;;;20.10;99.90;;;;;;5070556;28;19920;-67
2022/06/24 06:59:09;;;;;;;;;;;20.20;99.90;;;;;;5070202;28;19920;-69
2022/06/24 07:01:34;;;;;;;;;;;20.20;99.90;;;;;;5070318;28;20279;-68
2022/06/24 07:04:00;;;;;;;;;;;20.30;99.90;;;;;;5070335;28;19916;-67
2022/06/24 07:06:25;;;;;;;;;;;20.50;99.90;;;;;;5069690;28;19917;-68
2022/06/24 07:08:51;;;;;;;;;;;20.60;99.90;;;;;;5069699;28;19912;-68
2022/06/24 07:11:17;;;;;;;;;;;20.60;99.90;;;;;;5069800;28;19913;-68
2022/06/24 07:13:42;;;;;;;;;;;20.70;99.90;;;;;;5051568;28;19981;-69
2022/06/24 07:16:09;;;;;;;;;;;20.70;99.90;;;;;;5069412;28;20054;-68
2022/06/24 07:18:35;;;;;;;;;;;20.80;99.90;;;;;;5051565;28;19927;-68
2022/06/24 07:21:00;;;;;;;;;;;20.80;99.90;;;;;;5069367;28;19912;-67
2022/06/24 07:23:26;;;;;;;;;;;20.90;99.90;;;;;;5069502;28;20237;-67
2022/06/24 07:25:55;;;;;;;;;;;20.80;99.90;;;;;;5069244;28;20357;-68
2022/06/24 07:28:20;;;;;;;;;;;20.90;99.90;;;;;;5069225;28;19917;-68
2022/06/24 07:30:46;;;;;;;;;;;20.90;99.90;;;;;;5069339;28;19920;-69
2022/06/24 07:33:11;;;;;;;;;;;20.80;99.90;;;;;;5069272;28;19955;-67
2022/06/24 07:35:37;;;;;;;;;;;20.90;99.90;;;;;;5070097;28;19916;-67
2022/06/24 07:38:02;;;;;;;;;;;20.90;99.90;;;;;;5072949;28;19920;-68
2022/06/24 07:40:28;;;;;;;;;;;20.90;99.90;;;;;;5072824;28;19963;-68
2022/06/24 07:42:54;;;;;;;;;;;20.90;99.90;;;;;;5073347;28;20015;-67
2022/06/24 07:45:19;;;;;;;;;;;21.00;99.90;;;;;;5072606;28;20011;-67
2022/06/24 07:47:45;;;;;;;;;;;21.00;99.90;;;;;;5073086;28;19916;-68
2022/06/24 07:50:10;;;;;;;;;;;21.00;99.90;;;;;;5069549;28;19948;-67
2022/06/24 07:52:36;;;;;;;;;;;21.00;99.90;;;;;;5073108;28;19948;-67
2022/06/24 07:57:46;;;;;;;;;;;21.00;99.90;;;;;;5073438;28;20022;-68
2022/06/24 08:00:11;;;;;;;;;;;21.00;99.90;;;;;;5072910;28;19916;-67
2022/06/24 08:02:37;;;;;;;;;;;21.00;99.90;;;;;;5073247;28;19919;-68
2022/06/24 08:05:02;;;;;;;;;;;21.00;99.90;;;;;;5068350;28;20008;-68
2022/06/24 08:07:28;;;;;;;;;;;21.00;99.90;;;;;;5053358;28;20432;-67
2022/06/24 08:09:53;;;;;;;;;;;20.80;99.90;;;;;;5035106;28;20376;-68
2022/06/24 08:12:19;;;;;;;;;;;21.10;99.90;;;;;;5053540;28;19935;-68
2022/06/24 08:14:44;;;;;;;;;;;21.10;99.90;;;;;;5052885;28;19936;-67
2022/06/24 08:17:10;;;;;;;;;;;21.20;99.90;;;;;;5053411;28;19913;-68
2022/06/24 08:19:35;;;;;;;;;;;21.20;99.90;;;;;;5052802;28;19952;-68
2022/06/24 08:22:01;;;;;;;;;;;21.40;99.90;;;;;;5053161;28;20340;-67
2022/06/24 08:24:26;;;;;;;;;;;21.30;99.90;;;;;;5052604;28;19921;-68
2022/06/24 08:26:52;;;;;;;;;;;21.50;99.90;;;;;;5054067;28;19927;-67
2022/06/24 08:29:17;;;;;;;;;;;21.50;99.90;;;;;;5061132;28;20338;-68
2022/06/24 08:31:43;;;;;;;;;;;21.60;99.90;;;;;;5060183;28;19917;-69
2022/06/24 08:34:09;;;;;;;;;;;21.70;99.90;;;;;;5052343;28;20288;-68
2022/06/24 08:36:36;;;;;;;;;;;21.90;99.90;;;;;;5051830;28;20313;-68
2022/06/24 08:39:01;;;;;;;;;;;22.30;99.90;;;;;;5052421;28;20015;-68
2022/06/24 08:41:27;;;;;;;;;;;22.80;99.90;;;;;;5052441;28;20421;-68
2022/06/24 08:43:53;;;;;;;;;;;23.20;99.90;;;;;;5052097;28;19913;-69
2022/06/24 08:46:19;;;;;;;;;;;23.60;99.90;;;;;;5051939;28;20007;-69
2022/06/24 08:48:44;;;;;;;;;;;23.70;99.90;;;;;;5052368;28;19997;-69
2022/06/24 08:51:13;;;;;;;;;;;23.80;99.90;;;;;;5034089;28;19912;-69
2022/06/24 08:53:39;;;;;;;;;;;23.80;99.90;;;;;;5051809;28;19921;-69
2022/06/24 08:56:05;;;;;;;;;;;23.80;99.90;;;;;;5056860;28;19922;-69
2022/06/24 08:58:30;;;;;;;;;;;23.70;99.90;;;;;;5051864;28;19921;-69
2022/06/24 09:00:56;;;;;;;;;;;23.70;99.90;;;;;;5052154;28;19931;-69
2022/06/24 09:03:21;;;;;;;;;;;23.70;99.90;;;;;;5051768;28;19921;-69
2022/06/24 09:05:47;;;;;;;;;;;23.90;99.90;;;;;;5050288;28;19954;-74
2022/06/24 09:08:17;;;;;;;;;;;24.00;99.90;;;;;;5050729;28;20252;-74
2022/06/24 09:10:43;;;;;;;;;;;24.10;99.90;;;;;;5050424;28;19916;-74
2022/06/24 09:13:20;;;;;;;;;;;24.10;99.90;;;;;;5051653;28;20408;-74
2022/06/24 09:15:52;;;;;;;;;;;24.20;99.90;;;;;;5051753;28;19915;-74
2022/06/24 09:18:24;;;;;;;;;;;24.60;99.90;;;;;;5051531;28;20015;-74
2022/06/24 09:20:50;;;;;;;;;;;25.10;99.90;;;;;;5051699;28;19995;-74
2022/06/24 09:23:16;;;;;;;;;;;25.30;99.90;;;;;;5051652;28;20002;-73
2022/06/24 09:25:41;;;;;;;;;;;25.60;99.40;;;;;;5051890;28;19971;-74
2022/06/24 09:28:07;;;;;;;;;;;25.80;98.50;;;;;;5033495;28;19921;-74
2022/06/24 09:30:36;;;;;;;;;;;26.30;97.40;;;;;;5033473;28;20357;-74
2022/06/24 09:33:02;;;;;;;;;;;26.60;96.00;;;;;;5051440;28;19923;-74
2022/06/24 09:35:28;;;;;;;;;;;27.00;94.70;;;;;;5050958;28;19917;-74
2022/06/24 09:37:53;;;;;;;;;;;27.10;93.90;;;;;;5051250;28;20397;-74
2022/06/24 09:40:29;;;;;;;;;;;26.80;93.90;;;;;;5051527;28;19912;-74
2022/06/24 09:42:55;;;;;;;;;;;26.40;94.60;;;;;;5033141;28;19917;-74
2022/06/24 09:45:20;;;;;;;;;;;26.00;94.90;;;;;;5051187;28;19966;-74
2022/06/24 09:47:46;;;;;;;;;;;25.70;95.10;;;;;;5051143;28;19920;-75
2022/06/24 09:50:12;;;;;;;;;;;25.40;95.20;;;;;;5033158;28;20266;-74
2022/06/24 09:52:39;;;;;;;;;;;25.10;95.30;;;;;;5051030;28;19924;-74
2022/06/24 09:55:04;;;;;;;;;;;24.90;95.50;;;;;;5050955;28;19909;-74
2022/06/24 09:57:31;;;;;;;;;;;24.70;96.20;;;;;;5050519;28;19917;-74
2022/06/24 10:02:41;;;;;;;;;;;24.60;96.30;;;;;;5050992;28;19920;-74
2022/06/24 10:05:09;;;;;;;;;;;24.40;96.10;;;;;;5050886;28;20280;-74
2022/06/24 10:07:35;;;;;;;;;;;24.30;96.40;;;;;;5050781;28;19913;-74
2022/06/24 10:10:05;;;;;;;;;;;24.20;96.30;;;;;;5032856;28;20356;-74
2022/06/24 10:12:31;;;;;;;;;;;24.10;96.40;;;;;;5050944;28;19924;-74
2022/06/24 10:14:58;;;;;;;;;;;24.20;96.40;;;;;;5050624;28;19971;-74
2022/06/24 10:17:25;;;;;;;;;;;24.40;96.20;;;;;;5032527;28;19992;-73
2022/06/24 10:19:50;;;;;;;;;;;24.70;95.60;;;;;;5050526;28;20292;-73
2022/06/24 10:22:39;;;;;;;;;;;25.00;95.30;;;;;;5032483;28;19917;-73
2022/06/24 10:25:04;;;;;;;;;;;25.20;95.00;;;;;;5032395;28;20008;-73
2022/06/24 10:27:49;;;;;;;;;;;25.30;95.60;;;;;;5032309;28;19917;-73
2022/06/24 10:30:34;;;;;;;;;;;25.30;95.80;;;;;;5050161;28;19948;-73
2022/06/24 10:33:12;;;;;;;;;;;25.30;95.40;;;;;;5050348;28;20007;-73
2022/06/24 10:35:53;;;;;;;;;;;25.40;95.40;;;;;;5049983;28;19927;-73
2022/06/24 10:38:18;;;;;;;;;;;25.40;95.10;;;;;;5050102;28;20006;-73
2022/06/24 10:40:45;;;;;;;;;;;25.50;94.40;;;;;;5050418;28;19913;-73
2022/06/24 10:43:10;;;;;;;;;;;25.60;94.30;;;;;;5050045;28;19962;-73
2022/06/24 10:45:37;;;;;;;;;;;25.50;94.40;;;;;;5050326;28;20295;-74
2022/06/24 10:48:03;;;;;;;;;;;25.20;93.90;;;;;;5050173;28;19917;-73
2022/06/24 10:50:28;;;;;;;;;;;25.00;94.30;;;;;;5032144;28;19970;-74
2022/06/24 10:52:56;;;;;;;;;;;24.90;94.40;;;;;;5050167;28;19920;-73
2022/06/24 10:55:23;;;;;;;;;;;24.90;94.10;;;;;;5032084;28;19917;-74
2022/06/24 10:57:49;;;;;;;;;;;25.00;94.10;;;;;;5032032;28;19920;-73
2022/06/24 11:00:16;;;;;;;;;;;25.10;93.50;;;;;;5032360;28;19916;-73
2022/06/24 11:02:42;;;;;;;;;;;25.20;93.50;;;;;;5050004;28;19966;-74
2022/06/24 11:05:28;;;;;;;;;;;25.30;93.70;;;;;;5050238;28;19916;-74
2022/06/24 11:07:53;;;;;;;;;;;25.40;94.20;;;;;;5049704;28;19913;-74
2022/06/24 11:10:23;;;;;;;;;;;25.80;93.80;;;;;;5043149;28;19917;-74
2022/06/24 11:12:51;;;;;;;;;;;26.50;93.10;;;;;;5040351;28;20007;-70
2022/06/24 11:15:17;;;;;;;;;;;27.20;92.80;;;;;;5062001;28;20264;-68
2022/06/24 11:17:43;;;;;;;;;;;27.80;91.20;;;;;;5072274;28;19916;-69
2022/06/24 11:20:09;;;;;;;;;;;28.10;90.00;;;;;;5062532;28;20034;-69
2022/06/24 11:22:42;;;;;;;;;;;28.10;89.30;;;;;;5049791;28;20023;-69
2022/06/24 11:25:08;;;;;;;;;;;27.80;89.70;;;;;;5041100;28;20009;-69
2022/06/24 11:27:37;;;;;;;;;;;27.40;90.20;;;;;;5060448;28;19923;-70
2022/06/24 11:30:03;;;;;;;;;;;27.10;91.20;;;;;;5052834;28;19913;-69
2022/06/24 11:32:28;;;;;;;;;;;27.00;91.80;;;;;;5054299;28;20123;-70
2022/06/24 11:34:54;;;;;;;;;;;27.20;91.00;;;;;;5035175;28;19917;-69
2022/06/24 11:37:22;;;;;;;;;;;27.50;90.00;;;;;;5056074;28;19935;-69
2022/06/24 11:39:52;;;;;;;;;;;27.70;89.20;;;;;;5053183;28;19925;-69
2022/06/24 11:42:18;;;;;;;;;;;28.00;86.70;;;;;;5057343;28;20126;-69
2022/06/24 11:44:43;;;;;;;;;;;28.30;86.40;;;;;;5061833;28;20426;-69
2022/06/24 11:47:09;;;;;;;;;;;28.50;85.80;;;;;;5058793;28;19938;-69
2022/06/24 11:49:35;;;;;;;;;;;28.60;84.50;;;;;;5061450;28;19917;-69
2022/06/24 11:52:01;;;;;;;;;;;28.80;84.20;;;;;;5061614;28;19927;-69
2022/06/24 11:54:28;;;;;;;;;;;28.90;83.10;;;;;;5054658;28;20007;-70
2022/06/24 11:56:54;;;;;;;;;;;29.00;83.10;;;;;;5062006;28;19917;-69
2022/06/24 11:59:20;;;;;;;;;;;28.80;82.60;;;;;;5040870;28;19920;-70
2022/06/24 12:01:46;;;;;;;;;;;28.70;82.30;;;;;;5056556;28;19967;-69
2022/06/24 12:04:12;;;;;;;;;;;28.90;82.60;;;;;;5054774;28;20407;-70
2022/06/24 12:06:38;;;;;;;;;;;29.00;82.30;;;;;;5068654;28;19916;-70
2022/06/24 12:09:04;;;;;;;;;;;29.00;81.30;;;;;;5053747;28;19982;-69
2022/06/24 12:11:35;;;;;;;;;;;29.10;80.20;;;;;;5039078;28;20372;-70
2022/06/24 12:14:03;;;;;;;;;;;29.00;79.60;;;;;;5058492;28;19932;-70
2022/06/24 12:16:48;;;;;;;;;;;28.90;79.70;;;;;;5059978;28;19954;-70
2022/06/24 12:19:14;;;;;;;;;;;28.80;79.40;;;;;;5061341;28;20027;-70
2022/06/24 12:21:39;;;;;;;;;;;28.60;80.30;;;;;;5061215;28;20024;-68
2022/06/24 12:24:22;;;;;;;;;;;28.60;80.70;;;;;;5057342;28;19985;-69
2022/06/24 12:26:50;;;;;;;;;;;28.60;79.90;;;;;;5055583;28;19963;-69
2022/06/24 12:29:23;;;;;;;;;;;28.50;80.40;;;;;;5067831;28;19923;-70
2022/06/24 12:31:49;;;;;;;;;;;28.40;81.40;;;;;;5054951;28;19913;-70
2022/06/24 12:34:23;;;;;;;;;;;28.20;80.70;;;;;;5054322;28;20300;-69
2022/06/24 12:36:54;;;;;;;;;;;28.10;80.70;;;;;;5063972;28;19960;-70
2022/06/24 12:39:25;;;;;;;;;;;27.90;81.30;;;;;;5056482;28;20283;-69
2022/06/24 12:41:51;;;;;;;;;;;27.90;81.70;;;;;;5052354;28;19952;-69
2022/06/24 12:44:17;;;;;;;;;;;27.80;80.60;;;;;;5065254;28;19959;-69
2022/06/24 12:50:35;;;;;;;;;;;27.70;80.40;;;;;;5032548;28;19920;-69
2022/06/24 12:52:28;;;;;;;;;;;27.50;80.10;;;;;;5055979;28;19924;-68
2022/06/24 12:54:53;;;;;;;;;;;27.40;80.20;;;;;;5065880;28;19916;-70
2022/06/24 12:57:18;;;;;;;;;;;27.50;81.10;;;;;;5053709;28;19927;-69
2022/06/24 12:59:44;;;;;;;;;;;27.40;82.00;;;;;;5048802;28;20016;-69
2022/06/24 13:02:10;;;;;;;;;;;27.40;81.50;;;;;;5050588;28;20263;-69
2022/06/24 13:04:35;;;;;;;;;;;27.30;81.30;;;;;;5059331;28;19917;-69
2022/06/24 13:07:03;;;;;;;;;;;27.30;82.00;;;;;;5061188;28;20043;-69
2022/06/24 13:09:28;;;;;;;;;;;27.20;81.70;;;;;;5058155;28;20395;-69
2022/06/24 13:11:54;;;;;;;;;;;27.10;80.80;;;;;;5058763;28;19913;-70
2022/06/24 13:14:19;;;;;;;;;;;27.10;78.50;;;;;;5065062;28;19921;-69
2022/06/24 13:16:45;;;;;;;;;;;27.00;79.10;;;;;;5037234;28;20352;-70
2022/06/24 13:19:10;;;;;;;;;;;27.00;79.20;;;;;;5062256;28;20376;-69
2022/06/24 13:21:36;;;;;;;;;;;27.00;80.30;;;;;;5058652;28;19924;-69
2022/06/24 13:24:01;;;;;;;;;;;26.90;81.20;;;;;;5058763;28;20404;-69
2022/06/24 13:26:27;;;;;;;;;;;26.90;81.30;;;;;;5047076;28;19913;-69
2022/06/24 13:28:52;;;;;;;;;;;26.80;80.50;;;;;;5064640;28;19916;-69
2022/06/24 13:31:18;;;;;;;;;;;26.70;80.00;;;;;;5052948;28;20010;-70
2022/06/24 13:33:43;;;;;;;;;;;26.70;79.00;;;;;;5062298;28;19994;-69
2022/06/24 13:36:09;;;;;;;;;;;26.70;79.00;;;;;;5070780;28;20032;-69
2022/06/24 13:38:34;;;;;;;;;;;26.70;78.50;;;;;;5052668;28;19928;-70
2022/06/24 13:41:00;;;;;;;;;;;26.70;77.90;;;;;;5064364;28;19916;-69
2022/06/24 13:43:26;;;;;;;;;;;26.70;77.90;;;;;;5068759;28;20390;-69
2022/06/24 13:45:51;;;;;;;;;;;26.70;78.40;;;;;;5061725;28;20019;-69
2022/06/24 13:48:17;;;;;;;;;;;26.60;78.10;;;;;;5062303;28;19921;-68
2022/06/24 13:50:42;;;;;;;;;;;26.60;78.20;;;;;;5065355;28;19912;-69
2022/06/24 13:53:08;;;;;;;;;;;26.60;78.70;;;;;;5065770;28;19920;-68
2022/06/24 13:55:34;;;;;;;;;;;26.60;78.80;;;;;;5060108;28;20403;-69
2022/06/24 13:57:59;;;;;;;;;;;26.60;78.60;;;;;;5050612;28;19964;-69
2022/06/24 14:00:25;;;;;;;;;;;26.50;78.50;;;;;;5048867;28;19919;-70
2022/06/24 14:02:51;;;;;;;;;;;26.40;77.40;;;;;;5052500;28;20336;-68
2022/06/24 14:05:16;;;;;;;;;;;26.40;77.60;;;;;;5051746;28;19919;-68
2022/06/24 14:07:42;;;;;;;;;;;26.40;77.60;;;;;;5052895;28;19970;-69
2022/06/24 14:10:07;;;;;;;;;;;26.30;78.30;;;;;;5048265;28;19951;-67
2022/06/24 14:12:33;;;;;;;;;;;26.30;78.80;;;;;;5054445;28;20284;-69
2022/06/24 14:14:58;;;;;;;;;;;26.20;79.10;;;;;;5049209;28;19917;-69
2022/06/24 14:17:24;;;;;;;;;;;26.20;80.30;;;;;;5050603;28;19945;-69
2022/06/24 14:19:49;;;;;;;;;;;26.20;79.10;;;;;;5052496;28;19916;-69
2022/06/24 14:22:15;;;;;;;;;;;26.20;78.70;;;;;;5075454;28;19912;-69
2022/06/24 14:24:41;;;;;;;;;;;26.10;78.10;;;;;;5052462;28;20093;-67
2022/06/24 14:27:07;;;;;;;;;;;26.10;78.60;;;;;;5054470;28;20248;-69